Time;durP1;ratioP1;P1;durP2;ratioP2;P2;SDS_P1;SDS_P2;PMS_P1;PMS_P2;Temp;Humidity;BMP_temperature;BMP_pressure;BME280_temperature;BME280_humidity;BME280_pressure;Samples;Min_cycle;Max_cycle;Signal;HPM_P1;HPM_P2
2021/01/07 00:00:11;;;;;;;6.53;5.77;;;3.30;99.90;;;;;;5054814;28;20444;-55
2021/01/07 00:02:37;;;;;;;5.72;5.20;;;3.80;99.90;;;;;;5059439;28;20205;-59
2021/01/07 00:05:04;;;;;;;7.60;5.87;;;3.80;99.90;;;;;;5067485;28;20205;-56
2021/01/07 00:07:30;;;;;;;6.80;5.55;;;3.70;99.90;;;;;;5070022;28;20225;-57
2021/01/07 00:09:55;;;;;;;6.53;5.57;;;3.80;99.90;;;;;;5069544;28;20235;-59
2021/01/07 00:12:21;;;;;;;6.20;5.50;;;3.50;99.90;;;;;;5070346;28;20184;-57
2021/01/07 00:14:47;;;;;;;6.00;5.40;;;3.40;99.90;;;;;;5059635;28;20215;-56
2021/01/07 00:17:12;;;;;;;5.77;5.27;;;3.40;99.90;;;;;;5060034;28;20236;-55
2021/01/07 00:19:38;;;;;;;6.20;5.60;;;3.60;99.90;;;;;;5068676;28;20254;-56
2021/01/07 00:22:03;;;;;;;6.63;5.63;;;3.50;99.90;;;;;;5064993;28;20185;-55
2021/01/07 00:24:29;;;;;;;5.60;5.00;;;3.70;99.90;;;;;;5065312;28;20193;-56
2021/01/07 00:26:54;;;;;;;6.20;5.57;;;2.80;99.90;;;;;;5062592;28;20201;-56
2021/01/07 00:29:20;;;;;;;5.90;5.20;;;3.40;99.90;;;;;;5058063;28;20217;-57
2021/01/07 00:31:46;;;;;;;8.40;5.70;;;3.60;99.90;;;;;;5071293;28;20241;-55
2021/01/07 00:34:15;;;;;;;6.20;5.60;;;3.40;99.90;;;;;;5060054;28;20222;-56
2021/01/07 00:36:40;;;;;;;5.93;5.32;;;3.60;99.90;;;;;;5066383;28;20216;-55
2021/01/07 00:39:06;;;;;;;6.33;5.20;;;3.70;99.90;;;;;;5064757;28;20209;-56
2021/01/07 00:41:32;;;;;;;5.30;4.60;;;3.80;99.90;;;;;;5060821;28;20264;-57
2021/01/07 00:43:58;;;;;;;5.10;4.68;;;4.00;99.90;;;;;;5066155;28;20181;-59
2021/01/07 00:46:23;;;;;;;5.63;5.10;;;3.70;99.90;;;;;;5062531;28;20674;-55
2021/01/07 00:48:49;;;;;;;7.80;5.70;;;3.50;99.90;;;;;;5068585;28;20319;-57
2021/01/07 00:51:15;;;;;;;5.93;5.33;;;3.90;99.90;;;;;;5059604;28;20189;-56
2021/01/07 00:53:41;;;;;;;6.47;5.55;;;3.90;99.90;;;;;;5069727;28;20558;-57
2021/01/07 00:56:06;;;;;;;6.27;5.53;;;3.80;99.90;;;;;;5061134;28;20201;-57
2021/01/07 00:58:32;;;;;;;5.50;5.00;;;4.20;99.90;;;;;;5065002;28;20774;-54
2021/01/07 01:00:58;;;;;;;6.67;5.60;;;3.80;99.90;;;;;;5067591;28;20182;-55
2021/01/07 01:03:23;;;;;;;6.77;6.07;;;3.70;99.90;;;;;;5068793;28;20192;-55
2021/01/07 01:05:49;;;;;;;6.83;5.93;;;4.00;99.90;;;;;;5060817;28;20178;-55
2021/01/07 01:08:16;;;;;;;7.13;6.43;;;3.40;99.90;;;;;;5063959;28;20197;-57
2021/01/07 01:10:43;;;;;;;8.40;6.28;;;3.90;99.90;;;;;;5054718;28;20887;-57
2021/01/07 01:13:09;;;;;;;6.82;6.13;;;3.60;99.90;;;;;;5055879;28;20184;-57
2021/01/07 01:15:34;;;;;;;7.40;6.30;;;3.50;99.90;;;;;;5060899;28;20202;-56
2021/01/07 01:18:00;;;;;;;7.30;6.43;;;3.70;99.90;;;;;;5065095;28;20443;-57
2021/01/07 01:20:25;;;;;;;7.47;6.23;;;3.70;99.90;;;;;;5068365;28;20177;-55
2021/01/07 01:22:51;;;;;;;7.47;6.37;;;3.60;99.90;;;;;;5062193;28;20723;-55
2021/01/07 01:25:17;;;;;;;7.97;6.47;;;3.50;99.90;;;;;;5051360;28;20793;-54
2021/01/07 01:27:44;;;;;;;7.57;6.57;;;3.70;99.90;;;;;;5054316;28;20193;-55
2021/01/07 01:30:12;;;;;;;7.82;6.30;;;3.40;99.90;;;;;;5055191;28;20673;-54
2021/01/07 01:32:42;;;;;;;7.10;6.28;;;3.30;99.90;;;;;;5064886;28;20188;-55
2021/01/07 01:35:09;;;;;;;7.35;5.82;;;3.50;99.90;;;;;;5058238;28;20189;-54
2021/01/07 01:37:36;;;;;;;6.88;6.18;;;3.60;99.90;;;;;;5065721;28;20205;-55
2021/01/07 01:40:07;;;;;;;5.93;5.18;;;3.40;99.90;;;;;;5058738;28;20206;-55
2021/01/07 01:42:33;;;;;;;7.30;6.15;;;3.50;99.90;;;;;;5067076;28;20268;-55
2021/01/07 01:44:59;;;;;;;8.10;6.50;;;3.80;99.90;;;;;;5061835;28;20801;-55
2021/01/07 01:47:25;;;;;;;7.10;6.40;;;3.30;99.90;;;;;;5066347;28;20243;-54
2021/01/07 01:49:52;;;;;;;8.93;5.90;;;3.70;99.90;;;;;;5066284;28;20427;-55
2021/01/07 01:52:20;;;;;;;6.50;5.68;;;3.70;99.90;;;;;;5068529;28;20184;-55
2021/01/07 01:54:46;;;;;;;6.45;5.80;;;3.40;99.90;;;;;;5059730;28;20180;-55
2021/01/07 01:57:13;;;;;;;8.30;6.57;;;3.60;99.90;;;;;;5067033;28;20371;-55
2021/01/07 01:59:39;;;;;;;7.03;6.18;;;3.50;99.90;;;;;;5067928;28;20173;-54
2021/01/07 02:02:26;;;;;;;7.50;6.47;;;3.40;99.90;;;;;;5064346;28;20192;-57
2021/01/07 02:04:52;;;;;;;7.47;6.60;;;3.30;99.90;;;;;;5060290;28;20269;-54
2021/01/07 02:07:22;;;;;;;7.43;6.33;;;3.70;99.90;;;;;;5060420;28;20929;-55
2021/01/07 02:09:48;;;;;;;7.55;6.85;;;3.60;99.90;;;;;;5063962;28;20267;-55
2021/01/07 02:12:14;;;;;;;7.50;6.75;;;3.60;99.90;;;;;;5063361;28;20193;-55
2021/01/07 02:14:41;;;;;;;7.68;6.20;;;3.40;99.90;;;;;;5067554;28;20188;-54
2021/01/07 02:17:07;;;;;;;7.15;6.40;;;3.50;99.90;;;;;;5058175;28;20259;-54
2021/01/07 02:19:33;;;;;;;8.00;6.32;;;3.30;99.90;;;;;;5059675;28;20196;-55
2021/01/07 02:21:59;;;;;;;9.10;6.40;;;3.40;99.90;;;;;;5065024;28;20181;-55
2021/01/07 02:24:25;;;;;;;7.13;6.43;;;3.50;99.90;;;;;;5067504;28;20176;-55
2021/01/07 02:26:52;;;;;;;7.32;6.63;;;3.70;99.90;;;;;;5056649;28;20435;-55
2021/01/07 02:29:17;;;;;;;8.52;7.05;;;3.70;99.90;;;;;;5055737;28;20204;-55
2021/01/07 02:31:43;;;;;;;9.30;7.17;;;3.50;99.90;;;;;;5057108;28;20185;-55
2021/01/07 02:34:09;;;;;;;8.00;7.10;;;3.60;99.90;;;;;;5057132;28;20193;-54
2021/01/07 02:36:34;;;;;;;8.00;6.73;;;3.50;99.90;;;;;;5056810;28;20209;-55
2021/01/07 02:39:00;;;;;;;7.53;6.83;;;3.90;99.90;;;;;;5067436;28;20207;-54
2021/01/07 02:41:26;;;;;;;6.87;6.17;;;3.40;99.90;;;;;;5058873;28;20185;-55
2021/01/07 02:43:51;;;;;;;6.97;6.27;;;3.70;99.90;;;;;;5068222;28;20434;-55
2021/01/07 02:46:17;;;;;;;6.93;5.80;;;3.70;99.90;;;;;;5064952;28;20211;-56
2021/01/07 02:48:43;;;;;;;6.90;5.70;;;3.80;99.90;;;;;;5070839;28;20243;-55
2021/01/07 02:51:08;;;;;;;6.57;5.87;;;3.50;99.90;;;;;;5060724;28;20284;-55
2021/01/07 02:53:34;;;;;;;6.40;5.80;;;3.60;99.90;;;;;;5070858;28;20205;-57
2021/01/07 02:55:59;;;;;;;6.63;5.80;;;3.50;99.90;;;;;;5058601;28;20211;-55
2021/01/07 02:58:25;;;;;;;7.33;6.27;;;3.50;99.90;;;;;;5058155;28;20280;-55
2021/01/07 03:00:51;;;;;;;7.63;6.03;;;3.50;99.90;;;;;;5071548;28;20251;-54
2021/01/07 03:03:16;;;;;;;6.13;5.20;;;3.40;99.90;;;;;;5068195;28;20181;-55
2021/01/07 03:05:42;;;;;;;6.90;5.57;;;3.40;99.90;;;;;;5071434;28;20185;-57
2021/01/07 03:08:07;;;;;;;5.77;5.10;;;3.50;99.90;;;;;;5055465;28;20285;-57
2021/01/07 03:10:33;;;;;;;6.07;5.47;;;3.70;99.90;;;;;;5064439;28;20182;-57
2021/01/07 03:12:59;;;;;;;5.70;4.73;;;3.70;99.90;;;;;;5061234;28;20323;-57
2021/01/07 03:15:24;;;;;;;5.90;5.23;;;3.30;99.90;;;;;;5063549;28;20201;-57
2021/01/07 03:17:50;;;;;;;5.07;4.57;;;3.60;99.90;;;;;;5065097;28;20197;-57
2021/01/07 03:20:16;;;;;;;5.10;3.90;;;3.40;99.90;;;;;;5069022;28;20188;-57
2021/01/07 03:22:42;;;;;;;4.20;3.80;;;3.40;99.90;;;;;;5060003;28;20174;-56
2021/01/07 03:25:09;;;;;;;3.58;3.28;;;3.40;99.90;;;;;;5071108;28;20248;-56
2021/01/07 03:27:35;;;;;;;4.85;4.35;;;3.50;99.90;;;;;;5063804;28;20212;-57
2021/01/07 03:30:02;;;;;;;4.25;3.85;;;3.60;99.90;;;;;;5058271;28;20181;-57
2021/01/07 03:32:28;;;;;;;4.07;3.67;;;3.50;99.90;;;;;;5070095;28;20216;-57
2021/01/07 03:34:53;;;;;;;5.63;3.97;;;3.70;99.90;;;;;;5059941;28;20204;-57
2021/01/07 03:37:19;;;;;;;3.80;3.50;;;3.70;99.90;;;;;;5060610;28;20308;-57
2021/01/07 03:39:45;;;;;;;3.60;3.30;;;3.50;99.90;;;;;;5058925;28;20185;-57
2021/01/07 03:42:11;;;;;;;3.80;3.50;;;3.50;99.90;;;;;;5070831;28;20681;-57
2021/01/07 03:44:37;;;;;;;3.80;3.50;;;3.60;99.90;;;;;;5058839;28;20203;-57
2021/01/07 03:47:03;;;;;;;4.45;3.88;;;3.50;99.90;;;;;;5057103;28;20239;-57
2021/01/07 03:49:29;;;;;;;4.37;4.00;;;3.60;99.90;;;;;;5068537;28;20185;-57
2021/01/07 03:51:54;;;;;;;4.27;3.87;;;3.50;99.90;;;;;;5067289;28;20445;-56
2021/01/07 03:54:29;;;;;;;4.13;3.73;;;3.70;99.90;;;;;;5061846;28;20292;-57
2021/01/07 03:56:55;;;;;;;4.55;4.15;;;3.70;99.90;;;;;;5069354;28;20674;-56
2021/01/07 03:59:20;;;;;;;4.10;3.27;;;3.40;99.90;;;;;;5061625;28;20212;-56
2021/01/07 04:01:46;;;;;;;4.07;3.40;;;3.40;99.90;;;;;;5066389;28;20192;-56
2021/01/07 04:04:12;;;;;;;4.88;3.92;;;3.70;99.90;;;;;;5059944;28;20189;-54
2021/01/07 04:06:38;;;;;;;3.90;3.50;;;3.70;99.90;;;;;;5065918;28;20238;-56
2021/01/07 04:09:04;;;;;;;4.97;4.43;;;4.00;99.90;;;;;;5071639;28;20209;-56
2021/01/07 04:11:30;;;;;;;4.82;3.95;;;3.50;99.90;;;;;;5058686;28;20591;-57
2021/01/07 04:13:56;;;;;;;4.10;3.70;;;2.90;99.90;;;;;;5060695;28;20217;-57
2021/01/07 04:16:22;;;;;;;4.25;3.83;;;3.60;99.90;;;;;;5066850;28;20677;-56
2021/01/07 04:18:48;;;;;;;4.43;4.03;;;3.60;99.90;;;;;;5058148;28;20283;-56
2021/01/07 04:21:18;;;;;;;4.23;3.83;;;3.60;99.90;;;;;;5064953;28;20181;-56
2021/01/07 04:23:43;;;;;;;4.53;3.75;;;3.60;99.90;;;;;;5069303;28;20618;-57
2021/01/07 04:26:09;;;;;;;3.77;3.43;;;3.10;99.90;;;;;;5069684;28;20275;-57
2021/01/07 04:28:35;;;;;;;4.70;4.23;;;3.40;99.90;;;;;;5066473;28;20233;-57
2021/01/07 04:31:00;;;;;;;4.40;4.00;;;3.60;99.90;;;;;;5068573;28;20184;-56
2021/01/07 04:33:26;;;;;;;5.03;4.53;;;3.70;99.90;;;;;;5065780;28;20185;-57
2021/01/07 04:35:52;;;;;;;6.67;5.40;;;3.50;99.90;;;;;;5065272;28;20214;-54
2021/01/07 04:38:17;;;;;;;4.57;4.07;;;3.60;99.90;;;;;;5061161;28;20210;-56
2021/01/07 04:40:43;;;;;;;4.27;3.87;;;3.30;99.90;;;;;;5059399;28;20550;-56
2021/01/07 04:43:09;;;;;;;5.07;4.33;;;3.40;99.90;;;;;;5059366;28;20706;-56
2021/01/07 04:45:34;;;;;;;5.30;4.80;;;3.30;99.90;;;;;;5069704;28;20231;-56
2021/01/07 04:48:00;;;;;;;5.30;4.80;;;3.30;99.90;;;;;;5070231;28;20938;-57
2021/01/07 04:50:26;;;;;;;5.15;4.65;;;3.40;99.90;;;;;;5065721;28;20189;-55
2021/01/07 04:52:52;;;;;;;5.90;4.80;;;3.60;99.90;;;;;;5073130;28;20512;-57
2021/01/07 04:55:18;;;;;;;6.60;5.13;;;3.30;99.90;;;;;;5068944;28;20185;-57
2021/01/07 04:57:44;;;;;;;4.97;4.57;;;3.30;99.90;;;;;;5057696;28;20541;-57
2021/01/07 05:00:11;;;;;;;6.38;5.30;;;3.40;99.90;;;;;;5070107;28;20770;-57
2021/01/07 05:02:38;;;;;;;6.15;5.45;;;3.20;99.90;;;;;;5059066;28;20553;-56
2021/01/07 05:05:05;;;;;;;5.40;4.90;;;3.30;99.90;;;;;;5066942;28;20193;-57
2021/01/07 05:07:31;;;;;;;6.45;5.40;;;3.30;99.90;;;;;;5065314;28;20203;-57
2021/01/07 05:10:02;;;;;;;6.33;5.47;;;3.30;99.90;;;;;;5057334;28;20174;-55
2021/01/07 05:12:27;;;;;;;7.55;5.85;;;3.50;99.90;;;;;;5069052;28;20247;-57
2021/01/07 05:14:53;;;;;;;5.90;5.30;;;3.50;99.90;;;;;;5061418;28;20634;-54
2021/01/07 05:17:19;;;;;;;6.67;5.50;;;3.30;99.90;;;;;;5062470;28;20628;-55
2021/01/07 05:19:44;;;;;;;8.03;5.40;;;3.50;99.90;;;;;;5068645;28;20184;-56
2021/01/07 05:22:10;;;;;;;7.37;5.70;;;3.60;99.90;;;;;;5069194;28;20238;-56
2021/01/07 05:24:38;;;;;;;6.03;5.43;;;3.40;99.90;;;;;;5055863;28;20181;-57
2021/01/07 05:27:17;;;;;;;6.00;5.15;;;3.60;99.90;;;;;;5063075;28;20177;-57
2021/01/07 05:29:43;;;;;;;6.63;5.55;;;3.50;99.90;;;;;;5056955;28;20537;-57
2021/01/07 05:32:10;;;;;;;7.47;5.55;;;3.60;99.90;;;;;;5064692;28;20296;-57
2021/01/07 05:34:49;;;;;;;7.13;5.57;;;3.40;99.90;;;;;;5057221;28;20223;-57
2021/01/07 05:37:17;;;;;;;6.13;5.28;;;3.50;99.90;;;;;;5062773;28;20216;-56
2021/01/07 05:39:48;;;;;;;7.47;6.18;;;3.60;99.90;;;;;;5068079;28;20215;-56
2021/01/07 05:42:13;;;;;;;7.60;6.60;;;3.50;99.90;;;;;;5062391;28;20213;-57
2021/01/07 05:44:47;;;;;;;7.13;5.97;;;3.40;99.90;;;;;;5067572;28;20683;-57
2021/01/07 05:47:29;;;;;;;6.85;5.65;;;3.50;99.90;;;;;;5054008;28;20463;-57
2021/01/07 05:49:56;;;;;;;7.00;5.78;;;3.50;99.90;;;;;;5069600;28;20184;-57
2021/01/07 05:52:22;;;;;;;8.82;6.40;;;3.50;99.90;;;;;;5064868;28;20184;-57
2021/01/07 05:54:52;;;;;;;8.07;6.68;;;3.70;99.90;;;;;;5053800;28;20269;-57
2021/01/07 05:57:21;;;;;;;8.40;6.03;;;3.50;99.90;;;;;;5062595;28;20215;-57
2021/01/07 05:59:50;;;;;;;8.18;6.70;;;3.70;99.90;;;;;;5056412;28;20220;-57
2021/01/07 06:02:19;;;;;;;7.40;6.00;;;3.00;99.90;;;;;;5065211;28;20240;-57
2021/01/07 06:04:47;;;;;;;8.23;6.65;;;3.30;99.90;;;;;;5068110;28;20185;-54
2021/01/07 06:07:16;;;;;;;9.20;6.78;;;3.50;99.90;;;;;;5059332;28;20203;-56
2021/01/07 06:09:45;;;;;;;7.97;6.80;;;3.20;99.90;;;;;;5067418;28;20195;-57
2021/01/07 06:12:12;;;;;;;8.43;6.85;;;2.80;99.90;;;;;;5061804;28;20178;-57
2021/01/07 06:14:44;;;;;;;9.55;6.90;;;3.20;99.90;;;;;;5063244;28;20191;-57
2021/01/07 06:17:10;;;;;;;9.63;7.55;;;3.40;99.90;;;;;;5066381;28;20205;-57
2021/01/07 06:19:38;;;;;;;10.52;7.15;;;3.20;99.90;;;;;;5059503;28;20185;-57
2021/01/07 06:22:09;;;;;;;8.20;6.72;;;3.40;99.90;;;;;;5057958;28;20183;-56
2021/01/07 06:24:39;;;;;;;8.02;6.70;;;3.30;99.90;;;;;;5064636;28;20181;-57
2021/01/07 06:27:29;;;;;;;7.57;6.03;;;3.50;99.90;;;;;;5055502;28;20182;-57
2021/01/07 06:30:07;;;;;;;9.93;6.88;;;3.50;99.90;;;;;;5055809;28;20184;-57
2021/01/07 06:32:42;;;;;;;9.93;7.53;;;3.50;99.90;;;;;;5063044;28;20174;-57
2021/01/07 06:35:16;;;;;;;9.32;7.88;;;3.50;99.90;;;;;;5056802;28;20191;-57
2021/01/07 06:37:43;;;;;;;9.30;7.40;;;3.30;99.90;;;;;;5067602;28;20216;-57
2021/01/07 06:40:11;;;;;;;9.70;8.20;;;3.20;99.90;;;;;;5050415;28;20628;-56
2021/01/07 06:42:43;;;;;;;8.32;6.43;;;3.30;99.90;;;;;;5065180;28;20217;-57
2021/01/07 06:45:10;;;;;;;9.43;7.07;;;3.50;99.90;;;;;;5067666;28;20188;-56
2021/01/07 06:47:41;;;;;;;8.85;7.38;;;3.40;99.90;;;;;;5067532;28;20229;-56
2021/01/07 06:50:08;;;;;;;9.50;7.00;;;3.30;99.90;;;;;;5065137;28;20711;-56
2021/01/07 06:52:41;;;;;;;11.07;7.72;;;3.50;99.90;;;;;;5055686;28;20209;-56
2021/01/07 06:55:12;;;;;;;10.30;7.30;;;3.50;99.90;;;;;;5052784;28;20706;-56
2021/01/07 06:57:47;;;;;;;8.13;7.13;;;3.40;99.90;;;;;;5066115;28;20236;-56
2021/01/07 07:00:16;;;;;;;10.90;7.95;;;3.40;99.90;;;;;;5064252;28;20607;-56
2021/01/07 07:03:09;;;;;;;10.88;7.93;;;3.40;99.90;;;;;;5062318;28;20178;-56
2021/01/07 07:05:37;;;;;;;10.63;7.32;;;3.60;99.90;;;;;;5053188;28;20189;-56
2021/01/07 07:08:13;;;;;;;8.77;7.88;;;3.60;99.90;;;;;;5057562;28;20229;-56
2021/01/07 07:10:39;;;;;;;8.30;7.50;;;3.40;99.90;;;;;;5054480;28;20181;-56
2021/01/07 07:13:14;;;;;;;9.73;7.60;;;3.50;99.90;;;;;;5066127;28;20264;-57
2021/01/07 07:15:41;;;;;;;9.60;8.20;;;3.80;99.90;;;;;;5053266;28;20212;-56
2021/01/07 07:18:07;;;;;;;9.77;7.60;;;3.70;99.90;;;;;;5064509;28;20204;-56
2021/01/07 07:20:48;;;;;;;11.67;7.87;;;3.70;99.90;;;;;;5054020;28;20570;-56
2021/01/07 07:23:24;;;;;;;10.52;8.05;;;3.80;99.90;;;;;;5049811;28;20428;-56
2021/01/07 07:25:54;;;;;;;11.45;9.13;;;3.70;99.90;;;;;;5048784;28;20181;-56
2021/01/07 07:28:25;;;;;;;11.27;8.90;;;3.60;99.90;;;;;;5065344;28;20304;-57
2021/01/07 07:30:51;;;;;;;10.55;8.02;;;3.50;99.90;;;;;;5060407;28;20279;-56
2021/01/07 07:33:38;;;;;;;12.50;8.50;;;3.40;99.90;;;;;;5066452;28;20177;-57
2021/01/07 07:36:06;;;;;;;11.32;8.45;;;3.40;99.90;;;;;;5065092;28;20205;-56
2021/01/07 07:38:34;;;;;;;10.48;8.05;;;3.40;99.90;;;;;;5064570;28;20288;-57
2021/01/07 07:41:08;;;;;;;11.07;7.65;;;3.50;99.90;;;;;;5057620;28;20173;-55
2021/01/07 07:43:35;;;;;;;9.18;7.47;;;3.40;99.90;;;;;;5055661;28;20273;-56
2021/01/07 07:46:02;;;;;;;11.05;8.93;;;3.30;99.90;;;;;;5055676;28;20189;-57
2021/01/07 07:48:29;;;;;;;10.00;8.07;;;3.50;99.90;;;;;;5062528;28;20744;-56
2021/01/07 07:51:09;;;;;;;9.68;8.68;;;3.40;99.90;;;;;;5059758;28;20308;-57
2021/01/07 07:53:36;;;;;;;9.98;7.78;;;3.70;99.90;;;;;;5050033;28;20327;-57
2021/01/07 07:56:02;;;;;;;11.70;9.35;;;3.50;99.90;;;;;;5055693;28;20213;-57
2021/01/07 07:58:28;;;;;;;8.95;7.28;;;3.40;99.90;;;;;;5052141;28;20194;-56
2021/01/07 08:00:56;;;;;;;9.63;7.20;;;3.40;99.90;;;;;;5061436;28;20982;-57
2021/01/07 08:03:32;;;;;;;10.20;7.80;;;3.60;99.90;;;;;;5055562;28;20433;-57
2021/01/07 08:05:59;;;;;;;14.25;7.85;;;3.50;99.90;;;;;;5058956;28;20181;-57
2021/01/07 08:08:26;;;;;;;11.38;8.85;;;3.00;99.90;;;;;;5045572;28;20302;-57
2021/01/07 08:10:53;;;;;;;10.73;8.75;;;3.40;99.90;;;;;;5064846;28;20546;-56
2021/01/07 08:13:20;;;;;;;13.85;9.95;;;3.30;99.90;;;;;;5055571;28;20678;-56
2021/01/07 08:15:50;;;;;;;11.40;8.73;;;3.60;99.90;;;;;;5058298;28;20746;-57
2021/01/07 08:18:19;;;;;;;10.85;8.13;;;3.30;99.90;;;;;;5062930;28;20197;-57
2021/01/07 08:20:45;;;;;;;12.25;9.30;;;3.40;99.90;;;;;;5054545;28;20558;-56
2021/01/07 08:23:12;;;;;;;12.90;8.85;;;3.40;99.90;;;;;;5064191;28;20645;-57
2021/01/07 08:25:46;;;;;;;11.98;9.18;;;3.60;99.90;;;;;;5058284;28;20196;-56
2021/01/07 08:28:30;;;;;;;12.93;9.00;;;3.60;99.90;;;;;;5062480;28;20212;-56
2021/01/07 08:31:01;;;;;;;10.18;8.25;;;3.60;99.90;;;;;;5062880;28;20276;-56
2021/01/07 08:33:27;;;;;;;11.82;8.35;;;3.30;99.90;;;;;;5054269;28;20232;-57
2021/01/07 08:36:03;;;;;;;8.98;7.68;;;3.50;99.90;;;;;;5056995;28;20239;-56
2021/01/07 08:38:31;;;;;;;9.90;7.68;;;3.80;99.90;;;;;;5054329;28;20210;-57
2021/01/07 08:41:13;;;;;;;10.55;8.98;;;3.80;99.90;;;;;;5052188;28;20224;-55
2021/01/07 08:43:40;;;;;;;10.75;8.07;;;3.80;99.90;;;;;;5059769;28;20264;-56
2021/01/07 08:46:24;;;;;;;11.43;8.20;;;3.90;99.90;;;;;;5054447;28;20193;-56
2021/01/07 08:49:24;;;;;;;9.57;7.78;;;4.00;99.90;;;;;;5056686;28;20208;-57
2021/01/07 08:51:54;;;;;;;11.38;8.18;;;4.10;99.90;;;;;;5065553;28;20291;-56
2021/01/07 08:54:21;;;;;;;9.48;7.35;;;3.90;99.90;;;;;;5060897;28;20193;-56
2021/01/07 08:56:48;;;;;;;9.38;7.05;;;4.00;99.90;;;;;;5062905;28;20700;-56
2021/01/07 08:59:33;;;;;;;9.18;7.00;;;4.20;99.90;;;;;;5056262;28;20197;-56
2021/01/07 09:02:02;;;;;;;10.32;7.40;;;4.20;99.90;;;;;;5062584;28;20215;-56
2021/01/07 09:04:28;;;;;;;10.10;6.90;;;4.20;99.90;;;;;;5054498;28;20261;-57
2021/01/07 09:07:00;;;;;;;7.25;5.90;;;4.10;99.90;;;;;;5057323;28;20187;-56
2021/01/07 09:09:36;;;;;;;7.97;7.18;;;4.00;99.90;;;;;;5056120;28;20226;-56
2021/01/07 09:12:28;;;;;;;10.73;7.60;;;4.10;99.90;;;;;;5051977;28;20555;-56
2021/01/07 09:15:10;;;;;;;8.80;6.60;;;4.10;99.90;;;;;;5055261;28;20181;-57
2021/01/07 09:17:46;;;;;;;7.75;6.43;;;3.90;99.90;;;;;;5057696;28;20213;-56
2021/01/07 09:20:18;;;;;;;9.32;7.10;;;4.10;99.90;;;;;;5046755;28;20315;-57
2021/01/07 09:22:44;;;;;;;10.00;7.28;;;4.10;99.90;;;;;;5048819;28;20186;-56
2021/01/07 09:25:17;;;;;;;12.18;7.47;;;4.30;99.90;;;;;;5072829;28;20177;-56
2021/01/07 09:27:44;;;;;;;8.55;7.63;;;4.30;99.90;;;;;;5056682;28;20241;-56
2021/01/07 09:30:11;;;;;;;8.85;7.00;;;4.20;99.90;;;;;;5066201;28;20195;-56
2021/01/07 09:32:40;;;;;;;8.23;6.80;;;4.20;99.90;;;;;;5058077;28;20197;-57
2021/01/07 09:35:06;;;;;;;10.07;7.40;;;4.20;99.90;;;;;;5061105;28;20183;-56
2021/01/07 09:37:34;;;;;;;9.88;7.50;;;4.00;99.90;;;;;;5052422;28;20255;-57
2021/01/07 09:40:01;;;;;;;9.30;7.70;;;3.80;99.90;;;;;;5059447;28;20658;-57
2021/01/07 09:42:31;;;;;;;12.98;9.25;;;4.20;99.90;;;;;;5061705;28;20268;-57
2021/01/07 09:45:00;;;;;;;8.07;6.35;;;4.10;99.90;;;;;;5058784;28;20224;-65
2021/01/07 09:47:27;;;;;;;8.55;6.38;;;4.60;99.90;;;;;;5053413;28;20217;-60
2021/01/07 09:49:53;;;;;;;9.52;7.25;;;4.40;99.90;;;;;;5063666;28;20412;-57
2021/01/07 09:52:19;;;;;;;7.97;6.80;;;4.60;99.90;;;;;;5061483;28;20533;-56
2021/01/07 09:54:45;;;;;;;10.33;7.20;;;4.80;99.90;;;;;;5065665;28;20192;-57
2021/01/07 09:57:11;;;;;;;8.43;7.03;;;4.80;99.90;;;;;;5055656;28;20517;-56
2021/01/07 09:59:36;;;;;;;6.60;5.90;;;4.80;99.90;;;;;;5057447;28;20442;-57
2021/01/07 10:02:07;;;;;;;10.03;7.53;;;4.90;99.90;;;;;;5058750;28;20429;-56
2021/01/07 10:04:34;;;;;;;6.28;5.57;;;5.00;99.90;;;;;;5058249;28;20424;-56
2021/01/07 10:07:00;;;;;;;9.20;7.45;;;4.90;99.90;;;;;;5057016;28;20181;-56
2021/01/07 10:09:27;;;;;;;8.10;6.53;;;4.90;99.90;;;;;;5053644;28;20279;-57
2021/01/07 10:11:55;;;;;;;7.97;7.18;;;5.20;99.90;;;;;;5048935;28;20189;-57
2021/01/07 10:14:21;;;;;;;10.68;8.43;;;5.10;99.90;;;;;;5062102;28;20693;-56
2021/01/07 10:16:48;;;;;;;8.88;6.57;;;5.00;99.90;;;;;;5055518;28;20254;-57
2021/01/07 10:19:13;;;;;;;9.05;7.38;;;5.10;99.90;;;;;;5058582;28;20638;-58
2021/01/07 10:21:40;;;;;;;8.60;7.63;;;5.20;99.90;;;;;;5059921;28;20194;-58
2021/01/07 10:24:06;;;;;;;7.93;7.07;;;5.10;99.90;;;;;;5056824;28;20174;-58
2021/01/07 10:26:32;;;;;;;8.73;7.23;;;5.20;99.90;;;;;;5058945;28;21203;-58
2021/01/07 10:28:58;;;;;;;9.45;8.25;;;4.80;99.90;;;;;;5064709;28;20206;-58
2021/01/07 10:31:24;;;;;;;9.18;7.00;;;4.80;99.90;;;;;;5057425;28;20197;-56
2021/01/07 10:33:50;;;;;;;9.17;7.63;;;4.60;99.90;;;;;;5054141;28;20223;-56
2021/01/07 10:36:17;;;;;;;8.60;7.70;;;5.00;99.90;;;;;;5051132;28;20717;-56
2021/01/07 10:38:47;;;;;;;9.30;6.93;;;4.90;99.90;;;;;;5048714;28;20206;-56
2021/01/07 10:41:14;;;;;;;9.27;7.28;;;5.00;99.90;;;;;;5057194;28;20185;-55
2021/01/07 10:43:40;;;;;;;10.13;7.88;;;4.80;99.90;;;;;;5053127;28;20189;-55
2021/01/07 10:46:06;;;;;;;7.80;6.87;;;4.90;99.90;;;;;;5054060;28;20262;-56
2021/01/07 10:48:35;;;;;;;9.93;7.50;;;4.90;99.90;;;;;;5060715;28;20551;-55
2021/01/07 10:51:03;;;;;;;9.02;7.68;;;5.00;99.90;;;;;;5056784;28;20496;-57
2021/01/07 10:53:53;;;;;;;8.98;6.28;;;4.60;99.90;;;;;;5052694;28;20292;-57
2021/01/07 10:56:29;;;;;;;9.00;6.75;;;5.10;99.90;;;;;;5048149;28;20274;-56
2021/01/07 10:59:07;;;;;;;7.35;6.65;;;5.20;99.90;;;;;;5059486;28;20296;-56
2021/01/07 11:01:41;;;;;;;7.38;6.68;;;4.90;99.90;;;;;;5066591;28;20189;-56
2021/01/07 11:04:25;;;;;;;7.43;6.35;;;5.00;99.90;;;;;;5057516;28;20625;-56
2021/01/07 11:07:14;;;;;;;7.25;6.18;;;5.20;99.90;;;;;;5062823;28;20185;-57
2021/01/07 11:09:43;;;;;;;9.68;7.05;;;5.30;99.90;;;;;;5051634;28;20219;-57
2021/01/07 11:12:21;;;;;;;7.88;5.82;;;5.60;99.90;;;;;;5058959;28;20186;-56
2021/01/07 11:14:59;;;;;;;6.95;6.20;;;5.10;99.90;;;;;;5061627;28;20191;-57
2021/01/07 11:17:26;;;;;;;6.70;5.57;;;5.80;99.90;;;;;;5069186;28;20214;-57
2021/01/07 11:19:54;;;;;;;5.88;5.28;;;5.70;99.90;;;;;;5061714;28;20202;-58
2021/01/07 11:22:27;;;;;;;7.70;5.25;;;5.50;99.90;;;;;;5069648;28;20650;-57
2021/01/07 11:24:55;;;;;;;8.20;5.95;;;5.60;99.90;;;;;;5066867;28;20524;-57
2021/01/07 11:27:25;;;;;;;7.05;6.20;;;5.70;99.80;;;;;;5065594;28;20219;-58
2021/01/07 11:29:54;;;;;;;5.95;5.10;;;5.70;99.60;;;;;;5063028;28;20188;-58
2021/01/07 11:32:21;;;;;;;6.78;5.43;;;5.80;99.40;;;;;;5063742;28;20185;-58
2021/01/07 11:34:47;;;;;;;6.43;5.72;;;5.40;99.10;;;;;;5053488;28;20213;-57
2021/01/07 11:37:52;;;;;;;5.88;5.22;;;5.70;98.80;;;;;;5061770;28;20201;-57
2021/01/07 11:40:41;;;;;;;7.30;5.90;;;5.90;98.80;;;;;;5059526;28;20189;-57
2021/01/07 11:43:17;;;;;;;6.78;5.60;;;5.70;99.40;;;;;;5060961;28;20208;-58
2021/01/07 11:45:49;;;;;;;6.70;5.00;;;5.70;99.90;;;;;;5064257;28;20213;-59
2021/01/07 11:48:18;;;;;;;8.43;5.43;;;5.50;99.50;;;;;;5062157;28;20267;-59
2021/01/07 11:50:54;;;;;;;6.60;5.10;;;5.60;99.30;;;;;;5061022;28;20181;-59
2021/01/07 11:53:22;;;;;;;7.40;5.35;;;5.90;99.20;;;;;;5062840;28;20752;-59
2021/01/07 11:55:48;;;;;;;6.60;5.55;;;5.80;99.10;;;;;;5062351;28;20225;-56
2021/01/07 11:58:18;;;;;;;6.18;5.00;;;6.00;99.10;;;;;;5052323;28;20199;-58
2021/01/07 12:00:44;;;;;;;6.85;5.60;;;6.10;99.00;;;;;;5057711;28;20271;-57
2021/01/07 12:03:14;;;;;;;7.20;5.40;;;6.20;99.20;;;;;;5057336;28;20213;-57
2021/01/07 12:05:40;;;;;;;6.43;5.60;;;6.20;98.70;;;;;;5061842;28;20225;-58
2021/01/07 12:08:43;;;;;;;7.90;6.13;;;6.20;98.50;;;;;;5057430;28;20206;-57
2021/01/07 12:11:19;;;;;;;8.02;6.32;;;5.90;98.50;;;;;;5065596;28;20195;-58
2021/01/07 12:13:48;;;;;;;7.22;5.72;;;6.00;99.10;;;;;;5055224;28;20308;-58
2021/01/07 12:16:22;;;;;;;7.50;5.75;;;5.90;99.50;;;;;;5059123;28;20267;-57
2021/01/07 12:18:51;;;;;;;8.90;5.97;;;5.80;99.80;;;;;;5059727;28;20761;-58
2021/01/07 12:21:20;;;;;;;7.28;6.30;;;6.00;99.20;;;;;;5068881;28;20191;-58
2021/01/07 12:23:46;;;;;;;8.60;6.28;;;5.80;98.90;;;;;;5053880;28;20177;-58
2021/01/07 12:26:14;;;;;;;8.00;6.20;;;5.80;99.40;;;;;;5062042;28;20184;-57
2021/01/07 12:28:43;;;;;;;9.88;6.13;;;5.70;99.90;;;;;;5066103;28;20207;-58
2021/01/07 12:31:12;;;;;;;8.50;6.25;;;5.70;99.90;;;;;;5066000;28;20663;-58
2021/01/07 12:34:07;;;;;;;7.47;6.07;;;6.00;99.30;;;;;;5055871;28;20807;-58
2021/01/07 12:37:06;;;;;;;7.57;6.20;;;5.80;99.90;;;;;;5055389;28;20201;-60
2021/01/07 12:39:36;;;;;;;8.95;6.45;;;5.50;99.90;;;;;;5054254;28;20278;-57
2021/01/07 12:42:10;;;;;;;7.75;5.82;;;5.40;99.90;;;;;;5056104;28;20749;-57
2021/01/07 12:44:41;;;;;;;7.85;6.07;;;5.40;99.90;;;;;;5056468;28;20195;-57
2021/01/07 12:47:07;;;;;;;9.10;6.72;;;5.30;99.90;;;;;;5059496;28;20262;-58
2021/01/07 12:49:34;;;;;;;8.85;6.65;;;5.50;99.90;;;;;;5057685;28;20242;-57
2021/01/07 12:52:02;;;;;;;7.93;6.05;;;5.40;99.90;;;;;;5066497;28;20231;-57
2021/01/07 12:54:28;;;;;;;7.40;6.70;;;5.50;99.90;;;;;;5061283;28;20515;-56
2021/01/07 12:57:19;;;;;;;7.40;6.25;;;5.40;99.90;;;;;;5050337;28;20634;-56
2021/01/07 12:59:47;;;;;;;8.60;6.70;;;5.40;99.90;;;;;;5062131;28;20189;-58
2021/01/07 13:02:39;;;;;;;8.00;6.57;;;5.40;99.90;;;;;;5051222;28;20570;-57
2021/01/07 13:05:04;;;;;;;8.20;7.40;;;5.50;99.90;;;;;;5062597;28;20277;-58